createdAt,value
2022-07-28T00:00:17.799Z,15.30
2022-07-28T00:02:45.517Z,15.40
2022-07-28T00:05:13.128Z,15.40
2022-07-28T00:07:40.947Z,15.40
2022-07-28T00:10:09.139Z,15.40
2022-07-28T00:12:36.719Z,15.30
2022-07-28T00:15:04.870Z,15.30
2022-07-28T00:17:32.316Z,15.20
2022-07-28T00:19:59.763Z,15.20
2022-07-28T00:22:27.359Z,15.20
2022-07-28T00:24:55.285Z,15.10
2022-07-28T00:27:23.077Z,15.10
2022-07-28T00:29:51.297Z,15.10
2022-07-28T00:32:20.449Z,15.00
2022-07-28T00:34:48.275Z,14.90
2022-07-28T00:37:15.832Z,14.90
2022-07-28T00:39:43.823Z,14.80
2022-07-28T00:42:12.372Z,14.70
2022-07-28T00:44:41.880Z,14.70
2022-07-28T00:47:09.735Z,14.60
2022-07-28T00:49:37.449Z,14.50
2022-07-28T00:52:07.566Z,14.40
2022-07-28T00:54:36.087Z,14.30
2022-07-28T00:57:04.099Z,14.20
2022-07-28T00:59:33.689Z,14.20
2022-07-28T01:02:02.511Z,14.20
2022-07-28T01:04:30.425Z,14.10
2022-07-28T01:07:16.413Z,14.20
2022-07-28T01:10:02.504Z,14.20
2022-07-28T01:12:33.141Z,14.20
2022-07-28T01:15:21.796Z,14.20
2022-07-28T01:18:15.508Z,14.30
2022-07-28T01:20:50.059Z,14.30
2022-07-28T01:23:46.714Z,14.30
2022-07-28T01:26:30.178Z,14.40
2022-07-28T01:29:03.834Z,14.40
2022-07-28T01:31:41.047Z,14.50
2022-07-28T01:34:15.202Z,14.50
2022-07-28T01:36:46.508Z,14.50
2022-07-28T01:39:17.325Z,14.50
2022-07-28T01:41:46.580Z,14.60
2022-07-28T01:44:19.151Z,14.60
2022-07-28T01:46:48.733Z,14.60
2022-07-28T01:49:18.269Z,14.60
2022-07-28T01:51:47.279Z,14.60
2022-07-28T01:54:16.940Z,14.60
2022-07-28T01:56:46.761Z,14.60
2022-07-28T01:59:15.419Z,14.60
2022-07-28T02:01:45.737Z,14.70
2022-07-28T02:04:15.649Z,14.60
2022-07-28T02:06:44.746Z,14.70
2022-07-28T02:09:13.111Z,14.70
2022-07-28T02:11:41.396Z,14.70
2022-07-28T02:14:18.293Z,14.70
2022-07-28T02:17:03.335Z,14.70
2022-07-28T02:19:32.909Z,14.70
2022-07-28T02:22:03.254Z,14.70
2022-07-28T02:24:32.312Z,14.70
2022-07-28T02:27:05.890Z,14.70
2022-07-28T02:29:50.851Z,14.80
2022-07-28T02:32:27.781Z,14.80
2022-07-28T02:35:02.803Z,14.80
2022-07-28T02:37:36.213Z,14.80
2022-07-28T02:40:05.572Z,14.80
2022-07-28T02:42:35.656Z,14.80
2022-07-28T02:45:06.823Z,14.80
2022-07-28T02:47:40.196Z,14.80
2022-07-28T02:50:08.593Z,14.80
2022-07-28T02:52:36.707Z,14.80
2022-07-28T02:55:06.129Z,14.80
2022-07-28T02:57:34.637Z,14.80
2022-07-28T03:00:02.479Z,14.80
2022-07-28T03:02:30.740Z,14.80
2022-07-28T03:05:02.922Z,14.80
2022-07-28T03:07:50.656Z,14.80
2022-07-28T03:10:33.036Z,14.80
2022-07-28T03:13:04.198Z,14.80
2022-07-28T03:15:32.226Z,14.80
2022-07-28T03:18:01.184Z,14.80
2022-07-28T03:20:29.315Z,14.80
2022-07-28T03:22:58.455Z,14.70
2022-07-28T03:25:44.595Z,14.70
2022-07-28T03:28:17.815Z,14.70
2022-07-28T03:30:58.172Z,14.70
2022-07-28T03:33:26.314Z,14.70
2022-07-28T03:35:58.149Z,14.70
2022-07-28T03:38:53.937Z,14.60
2022-07-28T03:41:22.939Z,14.70
2022-07-28T03:43:51.835Z,14.60
2022-07-28T03:46:21.483Z,14.60
2022-07-28T03:48:49.356Z,14.60
2022-07-28T03:51:17.109Z,14.50
2022-07-28T03:53:45.044Z,14.50
2022-07-28T03:56:12.692Z,14.40
2022-07-28T03:58:40.184Z,14.40
2022-07-28T04:01:07.909Z,14.30
2022-07-28T04:03:35.459Z,14.30
2022-07-28T04:06:10.324Z,14.30
2022-07-28T04:08:37.889Z,14.30
2022-07-28T04:11:05.576Z,14.30
2022-07-28T04:13:33.476Z,14.30
2022-07-28T04:16:01.106Z,14.30
2022-07-28T04:18:28.953Z,14.30
2022-07-28T04:20:56.649Z,14.30
2022-07-28T04:23:24.701Z,14.30
2022-07-28T04:25:52.279Z,14.30
2022-07-28T04:28:19.894Z,14.30
2022-07-28T04:30:47.560Z,14.20
2022-07-28T04:33:15.391Z,14.20
2022-07-28T04:35:42.864Z,14.20
2022-07-28T04:38:12.142Z,14.20
2022-07-28T04:40:39.725Z,14.20
2022-07-28T04:43:07.273Z,14.20
2022-07-28T04:45:34.847Z,14.20
2022-07-28T04:48:02.534Z,14.30
2022-07-28T04:50:30.139Z,14.30
2022-07-28T04:53:00.549Z,14.30
2022-07-28T04:55:28.184Z,14.30
2022-07-28T04:57:55.970Z,14.30
2022-07-28T05:00:23.728Z,14.30
2022-07-28T05:02:51.833Z,14.30
2022-07-28T05:05:19.417Z,14.20
2022-07-28T05:07:46.923Z,14.20
2022-07-28T05:10:14.443Z,14.20
2022-07-28T05:12:42.677Z,14.20
2022-07-28T05:15:10.103Z,14.20
2022-07-28T05:17:37.743Z,14.20
2022-07-28T05:20:06.811Z,14.20
2022-07-28T05:22:45.531Z,14.20
2022-07-28T05:25:20.468Z,14.20
2022-07-28T05:27:49.286Z,14.20
2022-07-28T05:30:18.061Z,14.20
2022-07-28T05:32:45.704Z,14.20
2022-07-28T05:35:13.693Z,14.30
2022-07-28T05:37:41.597Z,14.30
2022-07-28T05:40:13.666Z,14.30
2022-07-28T05:42:43.402Z,14.30
2022-07-28T05:45:16.060Z,14.40
2022-07-28T05:47:47.229Z,14.40
2022-07-28T05:50:16.075Z,14.40
2022-07-28T05:52:43.701Z,14.40
2022-07-28T05:55:12.164Z,14.40
2022-07-28T05:57:40.754Z,14.50
2022-07-28T06:00:16.773Z,14.50
2022-07-28T06:02:45.843Z,14.70
2022-07-28T06:05:14.164Z,14.80
2022-07-28T06:07:42.955Z,14.90
2022-07-28T06:10:13.580Z,15.10
2022-07-28T06:12:46.887Z,15.30
2022-07-28T06:15:20.725Z,15.50
2022-07-28T06:17:52.448Z,15.70
2022-07-28T06:20:24.515Z,15.90
2022-07-28T06:22:55.385Z,16.10
2022-07-28T06:25:25.892Z,16.30
2022-07-28T06:27:56.251Z,16.60
2022-07-28T06:30:24.655Z,16.80
2022-07-28T06:32:52.285Z,17.00
2022-07-28T06:35:20.285Z,17.10
2022-07-28T06:37:49.218Z,17.30
2022-07-28T06:40:18.486Z,17.40
2022-07-28T06:42:46.793Z,17.60
2022-07-28T06:45:20.715Z,17.60
2022-07-28T06:47:50.153Z,17.70
2022-07-28T06:50:25.309Z,17.80
2022-07-28T06:52:58.799Z,17.90
2022-07-28T06:55:28.431Z,17.90
2022-07-28T06:58:02.793Z,18.00
2022-07-28T07:00:30.639Z,18.10
2022-07-28T07:02:58.257Z,18.20
2022-07-28T07:05:28.217Z,18.20
2022-07-28T07:07:56.125Z,18.40
2022-07-28T07:10:24.052Z,18.50
2022-07-28T07:12:51.656Z,18.70
2022-07-28T07:15:19.240Z,18.80
2022-07-28T07:17:46.927Z,18.90
2022-07-28T07:20:17.226Z,19.10
2022-07-28T07:22:47.134Z,19.20
2022-07-28T07:25:18.930Z,19.30
2022-07-28T07:27:47.107Z,19.30
2022-07-28T07:30:15.122Z,19.30
2022-07-28T07:32:42.599Z,19.40
2022-07-28T07:35:10.721Z,19.30
2022-07-28T07:37:38.161Z,19.40
2022-07-28T07:40:06.401Z,19.40
2022-07-28T07:42:34.079Z,19.40
2022-07-28T07:45:01.688Z,19.40
2022-07-28T07:47:29.344Z,19.40
2022-07-28T07:49:56.928Z,19.40
2022-07-28T07:52:24.460Z,19.40
2022-07-28T07:54:51.931Z,19.40
2022-07-28T07:57:19.493Z,19.50
2022-07-28T07:59:46.988Z,19.50
2022-07-28T08:02:14.648Z,19.50
2022-07-28T08:04:42.209Z,19.60
2022-07-28T08:07:10.660Z,19.60
2022-07-28T08:09:38.197Z,19.70
2022-07-28T08:12:06.126Z,19.90
2022-07-28T08:14:33.694Z,20.00
2022-07-28T08:17:01.933Z,20.00
2022-07-28T08:19:29.455Z,20.10
2022-07-28T08:21:57.106Z,20.20
2022-07-28T08:24:32.292Z,20.30
2022-07-28T08:27:02.474Z,20.30
2022-07-28T08:29:30.081Z,20.50
2022-07-28T08:31:57.703Z,20.50
2022-07-28T08:34:31.299Z,20.60
2022-07-28T08:37:03.254Z,20.60
2022-07-28T08:39:32.434Z,20.70
2022-07-28T08:42:11.936Z,20.70
2022-07-28T08:45:02.037Z,20.80
2022-07-28T08:47:40.495Z,20.90
2022-07-28T08:50:10.077Z,20.90
2022-07-28T08:52:39.830Z,21.00
2022-07-28T08:55:09.072Z,21.00
2022-07-28T08:57:41.036Z,21.00
2022-07-28T09:00:12.778Z,21.10
2022-07-28T09:02:45.527Z,21.10
2022-07-28T09:05:13.730Z,21.10
2022-07-28T09:07:42.101Z,21.00
2022-07-28T09:10:11.773Z,21.00
2022-07-28T09:12:42.782Z,21.00
2022-07-28T09:15:11.864Z,21.10
2022-07-28T09:17:41.044Z,21.10
2022-07-28T09:20:11.329Z,21.30
2022-07-28T09:23:02.051Z,21.40
2022-07-28T09:25:30.411Z,21.50
2022-07-28T09:28:08.654Z,21.60
2022-07-28T09:30:52.485Z,21.80
2022-07-28T09:33:42.962Z,21.90
2022-07-28T09:36:16.411Z,21.90
2022-07-28T09:38:44.741Z,22.10
2022-07-28T09:41:12.484Z,22.20
2022-07-28T09:43:43.302Z,22.40
2022-07-28T09:46:16.570Z,22.50
2022-07-28T09:48:50.657Z,22.60
2022-07-28T09:51:21.483Z,22.70
2022-07-28T09:53:49.699Z,22.80
2022-07-28T09:56:17.492Z,22.90
2022-07-28T09:58:57.420Z,23.10
2022-07-28T10:01:29.905Z,23.20
2022-07-28T10:04:03.379Z,23.30
2022-07-28T10:06:33.114Z,23.40
2022-07-28T10:09:03.226Z,23.50
2022-07-28T10:11:31.118Z,23.60
2022-07-28T10:13:58.709Z,23.70
2022-07-28T10:16:33.693Z,23.80
2022-07-28T10:19:03.993Z,23.70
2022-07-28T10:21:34.466Z,23.70
2022-07-28T10:24:09.344Z,23.70
2022-07-28T10:26:44.159Z,23.60
2022-07-28T10:29:20.917Z,23.60
2022-07-28T10:31:57.856Z,23.80
2022-07-28T10:34:33.909Z,23.90
2022-07-28T10:37:06.655Z,23.90
2022-07-28T10:39:42.232Z,24.00
2022-07-28T10:42:12.289Z,23.90
2022-07-28T10:44:41.720Z,23.70
2022-07-28T10:47:18.234Z,23.70
2022-07-28T10:49:49.055Z,23.70
2022-07-28T10:52:45.778Z,23.80
2022-07-28T10:55:31.943Z,23.80
2022-07-28T10:58:15.103Z,23.80
2022-07-28T11:01:04.681Z,23.70
2022-07-28T11:03:44.215Z,23.70
2022-07-28T11:06:24.488Z,23.70
2022-07-28T11:08:55.700Z,23.70
2022-07-28T11:11:44.872Z,23.80
2022-07-28T11:14:29.514Z,23.80
2022-07-28T11:17:10.690Z,23.80
2022-07-28T11:20:24.849Z,23.90
2022-07-28T11:22:34.061Z,24.00
2022-07-28T11:25:19.089Z,24.20
2022-07-28T11:27:54.361Z,24.20
2022-07-28T11:30:28.885Z,24.20
2022-07-28T11:32:57.748Z,24.10
2022-07-28T11:35:52.033Z,24.00
2022-07-28T11:38:19.984Z,23.80
2022-07-28T11:40:50.213Z,23.70
2022-07-28T11:43:35.382Z,24.50
2022-07-28T11:46:09.534Z,23.60
2022-07-28T11:48:39.812Z,23.60
2022-07-28T11:51:07.384Z,23.70
2022-07-28T11:53:42.083Z,23.80
2022-07-28T11:56:14.173Z,23.80
2022-07-28T11:58:43.235Z,23.90
2022-07-28T12:01:17.838Z,24.10
2022-07-28T12:03:56.007Z,24.20
2022-07-28T12:06:28.560Z,24.40
2022-07-28T12:09:08.099Z,24.60
2022-07-28T12:11:37.832Z,24.80
2022-07-28T12:14:14.239Z,24.90
2022-07-28T12:16:44.210Z,25.00
2022-07-28T12:19:16.105Z,25.10
2022-07-28T12:21:48.067Z,25.10
2022-07-28T12:24:28.172Z,25.20
2022-07-28T12:26:57.559Z,25.30
2022-07-28T12:29:32.290Z,25.40
2022-07-28T12:32:09.963Z,25.50
2022-07-28T12:34:40.609Z,25.60
2022-07-28T12:37:09.910Z,25.70
2022-07-28T12:39:42.108Z,25.80
2022-07-28T12:42:12.606Z,25.90
2022-07-28T12:44:42.793Z,25.90
2022-07-28T12:47:12.733Z,25.90
2022-07-28T12:49:42.510Z,25.80
2022-07-28T12:52:23.124Z,25.80
2022-07-28T12:54:55.759Z,25.60
2022-07-28T12:57:49.162Z,25.40
2022-07-28T13:00:21.422Z,25.30
2022-07-28T13:02:50.909Z,25.30
2022-07-28T13:05:56.468Z,25.20
2022-07-28T13:08:27.607Z,25.30
2022-07-28T13:10:59.196Z,25.30
2022-07-28T13:13:27.672Z,25.30
2022-07-28T13:16:15.658Z,25.30
2022-07-28T13:18:46.420Z,25.30
2022-07-28T13:21:15.141Z,25.20
2022-07-28T13:23:43.992Z,25.10
2022-07-28T13:26:11.564Z,25.00
2022-07-28T13:28:39.697Z,24.90
2022-07-28T13:31:07.415Z,25.00
2022-07-28T13:33:34.992Z,25.00
2022-07-28T13:36:02.574Z,25.00
2022-07-28T13:38:30.218Z,25.20
2022-07-28T13:40:57.936Z,25.40
2022-07-28T13:43:36.281Z,25.80
2022-07-28T13:46:04.551Z,26.10
2022-07-28T13:48:36.057Z,26.30
2022-07-28T13:51:03.804Z,26.50
2022-07-28T13:53:34.374Z,26.60
2022-07-28T13:56:02.017Z,27.00
2022-07-28T13:58:29.600Z,27.20
2022-07-28T14:00:57.676Z,27.40
2022-07-28T14:03:25.671Z,27.70
2022-07-28T14:05:53.445Z,28.00
2022-07-28T14:08:21.393Z,28.30
2022-07-28T14:11:01.231Z,28.50
2022-07-28T14:13:31.543Z,28.80
2022-07-28T14:16:07.775Z,29.20
2022-07-28T14:18:38.565Z,29.40
2022-07-28T14:21:06.439Z,29.40
2022-07-28T14:23:34.106Z,29.30
2022-07-28T14:26:25.211Z,29.20
2022-07-28T14:28:49.022Z,29.00
2022-07-28T14:31:18.036Z,28.40
2022-07-28T14:33:52.254Z,28.00
2022-07-28T14:36:22.154Z,28.00
2022-07-28T14:38:53.404Z,28.50
2022-07-28T14:41:23.347Z,28.70
2022-07-28T14:43:50.913Z,28.90
2022-07-28T14:46:21.793Z,29.20
2022-07-28T14:48:49.839Z,29.60
2022-07-28T14:51:17.852Z,29.90
2022-07-28T14:53:51.863Z,30.10
2022-07-28T14:56:19.867Z,30.30
2022-07-28T14:58:47.472Z,30.30
2022-07-28T15:01:15.195Z,29.80
2022-07-28T15:03:43.211Z,29.20
2022-07-28T15:06:11.155Z,28.60
2022-07-28T15:08:38.792Z,28.00
2022-07-28T15:11:06.337Z,27.20
2022-07-28T15:13:34.089Z,26.50
2022-07-28T15:16:02.307Z,26.20
2022-07-28T15:18:29.980Z,25.70
2022-07-28T15:20:57.511Z,25.70
2022-07-28T15:23:25.065Z,25.90
2022-07-28T15:25:53.315Z,26.20
2022-07-28T15:28:21.260Z,26.40
2022-07-28T15:30:52.931Z,26.40
2022-07-28T15:33:21.277Z,26.40
2022-07-28T15:35:57.559Z,26.20
2022-07-28T15:38:31.464Z,26.20
2022-07-28T15:40:59.820Z,26.00
2022-07-28T15:43:28.574Z,26.10
2022-07-28T15:45:57.450Z,25.90
2022-07-28T15:48:25.159Z,25.70
2022-07-28T15:50:52.803Z,25.60
2022-07-28T15:53:20.479Z,25.50
2022-07-28T15:55:51.290Z,25.60
2022-07-28T15:58:21.204Z,25.70
2022-07-28T16:00:50.097Z,25.70
2022-07-28T16:03:17.941Z,25.70
2022-07-28T16:05:49.407Z,26.00
2022-07-28T16:08:22.979Z,26.30
2022-07-28T16:10:52.805Z,26.40
2022-07-28T16:13:37.165Z,26.90
2022-07-28T16:16:10.195Z,27.40
2022-07-28T16:18:39.364Z,27.80
2022-07-28T16:21:08.526Z,27.90
2022-07-28T16:23:36.149Z,28.20
2022-07-28T16:26:07.743Z,28.70
2022-07-28T16:28:36.515Z,28.70
2022-07-28T16:31:04.539Z,28.70
2022-07-28T16:33:33.576Z,28.80
2022-07-28T16:36:02.593Z,29.20
2022-07-28T16:38:30.598Z,29.60
2022-07-28T16:40:58.149Z,29.60
2022-07-28T16:43:25.795Z,29.50
2022-07-28T16:45:53.579Z,29.50
2022-07-28T16:48:21.306Z,28.90
2022-07-28T16:50:49.029Z,28.30
2022-07-28T16:53:16.795Z,27.40
2022-07-28T16:55:46.855Z,26.60
2022-07-28T16:58:15.081Z,25.90
2022-07-28T17:00:42.612Z,25.40
2022-07-28T17:03:11.225Z,25.10
2022-07-28T17:05:38.996Z,24.80
2022-07-28T17:08:06.529Z,24.60
2022-07-28T17:10:34.080Z,24.50
2022-07-28T17:13:01.703Z,24.50
2022-07-28T17:15:29.470Z,24.50
2022-07-28T17:17:57.181Z,24.40
2022-07-28T17:20:25.441Z,24.30
2022-07-28T17:22:53.153Z,24.20
2022-07-28T17:28:11.400Z,24.10
2022-07-28T17:30:40.429Z,24.00
2022-07-28T17:33:09.098Z,24.00
2022-07-28T17:35:38.629Z,23.90
2022-07-28T17:38:09.109Z,23.80
2022-07-28T17:40:38.284Z,23.70
2022-07-28T17:43:06.433Z,23.70
2022-07-28T17:45:33.964Z,23.60
2022-07-28T17:48:01.480Z,23.50
2022-07-28T17:50:29.163Z,23.50
2022-07-28T17:52:57.088Z,23.40
2022-07-28T17:55:57.561Z,23.20
2022-07-28T17:58:28.688Z,23.10
2022-07-28T18:01:10.042Z,22.90
2022-07-28T18:03:59.690Z,22.80
2022-07-28T18:06:30.348Z,22.80
2022-07-28T18:09:05.326Z,22.80
2022-07-28T18:11:37.605Z,22.70
2022-07-28T18:14:28.368Z,22.70
2022-07-28T18:16:56.548Z,22.60
2022-07-28T18:19:24.343Z,22.50
2022-07-28T18:21:52.059Z,22.30
2022-07-28T18:24:21.920Z,22.20
2022-07-28T18:26:51.319Z,22.20
2022-07-28T18:29:20.938Z,22.20
2022-07-28T18:31:52.709Z,22.10
2022-07-28T18:34:24.916Z,21.90
2022-07-28T18:36:54.117Z,21.80
2022-07-28T18:39:21.877Z,21.60
2022-07-28T18:41:49.446Z,21.40
2022-07-28T18:44:18.079Z,21.20
2022-07-28T18:46:46.405Z,21.00
2022-07-28T18:49:14.766Z,20.80
2022-07-28T18:51:44.208Z,20.60
2022-07-28T18:54:18.788Z,20.50
2022-07-28T18:56:47.910Z,20.40
2022-07-28T18:59:15.675Z,20.20
2022-07-28T19:01:43.470Z,20.00
2022-07-28T19:04:14.205Z,19.90
2022-07-28T19:06:41.861Z,20.10
2022-07-28T19:09:09.339Z,20.10
2022-07-28T19:11:40.071Z,20.00
2022-07-28T19:14:10.131Z,20.00
2022-07-28T19:16:37.748Z,19.90
2022-07-28T19:19:05.443Z,19.60
2022-07-28T19:21:34.686Z,19.50
2022-07-28T19:24:02.315Z,19.30
2022-07-28T19:26:29.839Z,19.20
2022-07-28T19:28:57.712Z,19.10
2022-07-28T19:31:26.452Z,18.90
2022-07-28T19:33:55.433Z,18.80
2022-07-28T19:36:23.193Z,18.70
2022-07-28T19:38:50.698Z,18.60
2022-07-28T19:41:18.521Z,18.50
2022-07-28T19:43:46.118Z,18.40
2022-07-28T19:46:13.761Z,18.30
2022-07-28T19:48:41.445Z,18.20
2022-07-28T19:51:09.196Z,18.10
2022-07-28T19:53:37.064Z,18.00
2022-07-28T19:56:09.024Z,17.90
2022-07-28T19:58:37.298Z,17.80
2022-07-28T20:01:05.729Z,17.70
2022-07-28T20:04:02.148Z,17.70
2022-07-28T20:06:25.009Z,17.60
2022-07-28T20:08:53.355Z,17.50
2022-07-28T20:11:20.907Z,17.40
2022-07-28T20:13:49.469Z,17.30
2022-07-28T20:16:17.219Z,17.20
2022-07-28T20:18:44.695Z,17.10
2022-07-28T20:21:12.978Z,17.10
2022-07-28T20:23:41.093Z,17.00
2022-07-28T20:26:10.033Z,16.90
2022-07-28T20:28:37.968Z,16.80
2022-07-28T20:31:06.629Z,16.70
2022-07-28T20:33:34.132Z,16.70
2022-07-28T20:36:01.647Z,16.60
2022-07-28T20:38:28.919Z,16.60
2022-07-28T20:40:56.823Z,16.50
2022-07-28T20:43:24.230Z,16.50
2022-07-28T20:46:05.308Z,16.50
2022-07-28T20:48:32.947Z,16.40
2022-07-28T20:51:00.329Z,16.40
2022-07-28T20:53:27.634Z,16.30
2022-07-28T20:55:55.031Z,16.30
2022-07-28T20:58:22.729Z,16.20
2022-07-28T21:00:51.668Z,16.10
2022-07-28T21:03:19.689Z,16.00
2022-07-28T21:05:47.061Z,16.00
2022-07-28T21:08:16.311Z,15.90
2022-07-28T21:10:44.835Z,15.80
2022-07-28T21:13:12.189Z,15.80
2022-07-28T21:15:39.492Z,15.70
2022-07-28T21:18:06.833Z,15.70
2022-07-28T21:20:34.157Z,15.60
2022-07-28T21:23:01.442Z,15.50
2022-07-28T21:25:32.316Z,15.50
2022-07-28T21:28:18.039Z,15.40
2022-07-28T21:30:45.927Z,15.30
2022-07-28T21:33:13.429Z,15.30
2022-07-28T21:35:50.043Z,15.30
2022-07-28T21:38:17.455Z,15.30
2022-07-28T21:40:44.774Z,15.30
2022-07-28T21:43:12.243Z,15.30
2022-07-28T21:45:39.652Z,15.30
2022-07-28T21:48:06.966Z,15.30
2022-07-28T21:50:35.916Z,15.40
2022-07-28T21:53:04.029Z,15.30
2022-07-28T21:55:31.458Z,15.40
2022-07-28T21:57:58.770Z,15.30
2022-07-28T22:00:26.296Z,15.30
2022-07-28T22:02:53.758Z,15.30
2022-07-28T22:05:21.324Z,15.30
2022-07-28T22:07:49.090Z,15.30
2022-07-28T22:10:17.430Z,15.20
2022-07-28T22:12:45.530Z,15.10
2022-07-28T22:15:12.942Z,15.10
2022-07-28T22:17:40.297Z,15.00
2022-07-28T22:20:08.215Z,15.10
2022-07-28T22:22:35.591Z,14.90
2022-07-28T22:25:03.227Z,14.80
2022-07-28T22:27:30.605Z,14.80
2022-07-28T22:29:58.083Z,14.80
2022-07-28T22:32:28.786Z,14.90
2022-07-28T22:34:59.811Z,14.70
2022-07-28T22:37:27.207Z,14.70
2022-07-28T22:39:54.697Z,14.70
2022-07-28T22:42:22.254Z,14.70
2022-07-28T22:44:49.603Z,14.40
2022-07-28T22:47:17.062Z,14.60
2022-07-28T22:49:44.368Z,14.60
2022-07-28T22:52:11.815Z,14.60
2022-07-28T22:54:39.923Z,14.60
2022-07-28T22:57:07.456Z,14.50
2022-07-28T22:59:38.461Z,14.50
2022-07-28T23:02:07.215Z,14.50
2022-07-28T23:04:34.601Z,14.50
2022-07-28T23:07:01.951Z,14.60
2022-07-28T23:09:29.293Z,14.50
2022-07-28T23:11:56.919Z,14.50
2022-07-28T23:14:24.275Z,14.50
2022-07-28T23:16:51.707Z,14.50
2022-07-28T23:19:19.036Z,14.50
2022-07-28T23:21:46.386Z,14.50
2022-07-28T23:24:14.124Z,14.50
2022-07-28T23:26:41.635Z,14.50
2022-07-28T23:29:08.918Z,14.50
2022-07-28T23:31:36.524Z,14.50
2022-07-28T23:34:03.881Z,14.40
2022-07-28T23:36:31.285Z,14.40
2022-07-28T23:38:59.158Z,14.30
2022-07-28T23:41:27.007Z,14.30
2022-07-28T23:43:54.662Z,14.20
2022-07-28T23:46:22.268Z,14.10
2022-07-28T23:48:49.975Z,14.10
2022-07-28T23:51:17.445Z,14.00
2022-07-28T23:53:44.762Z,14.00
2022-07-28T23:56:13.630Z,13.90
2022-07-28T23:58:41.200Z,13.90
